Time;durP1;ratioP1;P1;durP2;ratioP2;P2;SDS_P1;SDS_P2;PMS_P1;PMS_P2;Temp;Humidity;BMP_temperature;BMP_pressure;BME280_temperature;BME280_humidity;BME280_pressure;Samples;Min_cycle;Max_cycle;Signal;HPM_P1;HPM_P2
2023/01/21 00:00:13;;;;;;;3.38;0.90;;;22.70;99.90;;;;;;5035263;28;20201;-78
2023/01/21 00:02:44;;;;;;;6.25;1.00;;;22.80;99.90;;;;;;5035200;28;20225;-78
2023/01/21 00:05:15;;;;;;;4.72;1.10;;;22.70;99.90;;;;;;5035237;28;20187;-78
2023/01/21 00:07:46;;;;;;;3.75;0.88;;;22.70;99.90;;;;;;5035182;28;20228;-78
2023/01/21 00:10:17;;;;;;;6.97;0.90;;;22.80;99.90;;;;;;5035057;28;20218;-78
2023/01/21 00:12:48;;;;;;;7.50;0.90;;;22.70;99.90;;;;;;5034820;28;20186;-78
2023/01/21 00:15:21;;;;;;;3.67;0.73;;;22.90;99.90;;;;;;5035378;28;20222;-78
2023/01/21 00:17:58;;;;;;;4.35;0.80;;;23.00;99.90;;;;;;5035064;28;20230;-79
2023/01/21 00:20:29;;;;;;;4.78;0.80;;;23.20;99.90;;;;;;5034529;28;20197;-78
2023/01/21 00:23:00;;;;;;;3.28;0.88;;;23.20;99.90;;;;;;5034940;28;20197;-79
2023/01/21 00:25:31;;;;;;;4.30;0.70;;;23.20;99.90;;;;;;5034784;28;20680;-78
2023/01/21 00:28:02;;;;;;;6.30;1.00;;;23.40;99.90;;;;;;5034675;28;20286;-78
2023/01/21 00:30:35;;;;;;;3.15;0.73;;;23.60;99.90;;;;;;5034686;28;20214;-78
2023/01/21 00:33:06;;;;;;;4.38;1.00;;;23.70;99.90;;;;;;5034907;28;20578;-79
2023/01/21 00:35:37;;;;;;;4.10;0.90;;;23.90;99.90;;;;;;5034653;28;20737;-78
2023/01/21 00:38:11;;;;;;;4.10;0.80;;;24.10;99.90;;;;;;5034599;28;20277;-77
2023/01/21 00:40:41;;;;;;;3.67;0.60;;;24.40;99.90;;;;;;5034553;28;20660;-78
2023/01/21 00:43:12;;;;;;;3.10;0.57;;;24.60;99.90;;;;;;5034244;28;20281;-79
2023/01/21 00:45:45;;;;;;;1.42;0.60;;;24.70;99.90;;;;;;5034757;28;20204;-77
2023/01/21 00:48:16;;;;;;;4.97;0.75;;;24.80;99.90;;;;;;5034381;28;20601;-78
2023/01/21 00:50:47;;;;;;;1.10;0.40;;;24.70;99.90;;;;;;5034202;28;20583;-78
2023/01/21 00:53:18;;;;;;;4.00;0.60;;;25.00;99.90;;;;;;5034249;28;20282;-77
2023/01/21 00:55:49;;;;;;;4.43;0.63;;;25.40;99.90;;;;;;5033938;28;20605;-78
2023/01/21 00:58:20;;;;;;;4.97;0.73;;;25.40;99.90;;;;;;5034027;28;20762;-77
2023/01/21 01:01:01;;;;;;;3.75;0.60;;;25.70;99.90;;;;;;5034424;28;20198;-78
2023/01/21 01:03:32;;;;;;;3.22;0.60;;;25.90;99.90;;;;;;5034146;28;20273;-78
2023/01/21 01:06:08;;;;;;;3.60;0.63;;;25.60;99.90;;;;;;5034080;28;20250;-77
2023/01/21 01:08:39;;;;;;;5.18;0.82;;;25.00;99.90;;;;;;5034346;28;20273;-78
2023/01/21 01:11:12;;;;;;;3.03;0.60;;;24.70;99.90;;;;;;5033716;28;20309;-78
2023/01/21 01:13:43;;;;;;;4.70;0.95;;;24.60;99.90;;;;;;5033830;28;20190;-77
2023/01/21 01:16:17;;;;;;;2.05;0.60;;;24.70;99.90;;;;;;5033870;28;20190;-78
2023/01/21 01:18:48;;;;;;;4.25;0.63;;;24.90;99.90;;;;;;5033820;28;20195;-77
2023/01/21 01:21:20;;;;;;;2.97;0.50;;;25.00;99.90;;;;;;5033818;28;20277;-77
2023/01/21 01:23:53;;;;;;;5.57;0.65;;;24.90;99.90;;;;;;5033695;28;20216;-77
2023/01/21 01:26:25;;;;;;;2.15;0.45;;;24.60;99.90;;;;;;5033521;28;20197;-77
2023/01/21 01:28:56;;;;;;;3.70;1.00;;;24.40;99.90;;;;;;5033666;28;20713;-78
2023/01/21 01:31:29;;;;;;;3.40;0.75;;;24.20;99.90;;;;;;5033138;28;20309;-78
2023/01/21 01:34:00;;;;;;;2.65;0.68;;;24.10;99.90;;;;;;5033493;28;20288;-78
2023/01/21 01:36:31;;;;;;;3.70;0.60;;;23.90;99.90;;;;;;5033600;28;20277;-77
2023/01/21 01:39:02;;;;;;;3.90;0.50;;;23.80;99.90;;;;;;5033570;28;20197;-78
2023/01/21 01:41:35;;;;;;;2.50;0.52;;;23.70;99.90;;;;;;5033429;28;20190;-79
2023/01/21 01:44:08;;;;;;;4.38;0.80;;;23.80;99.90;;;;;;5033391;28;20186;-77
2023/01/21 01:46:41;;;;;;;2.58;0.73;;;24.00;99.90;;;;;;5033733;28;20336;-77
2023/01/21 01:49:16;;;;;;;2.63;0.75;;;24.10;99.90;;;;;;5033336;28;20192;-77
2023/01/21 01:51:51;;;;;;;3.13;0.70;;;23.90;99.90;;;;;;5033316;28;20225;-78
2023/01/21 01:54:26;;;;;;;2.65;0.70;;;23.90;99.90;;;;;;5033312;28;20308;-78
2023/01/21 01:56:59;;;;;;;2.67;0.60;;;23.90;99.90;;;;;;5033054;28;20693;-78
2023/01/21 01:59:37;;;;;;;4.85;0.60;;;23.80;99.90;;;;;;5033182;28;20628;-78
2023/01/21 02:02:13;;;;;;;4.90;0.60;;;23.70;99.90;;;;;;5033145;28;20190;-77
2023/01/21 02:04:47;;;;;;;3.22;0.50;;;23.80;99.90;;;;;;5033181;28;20200;-78
2023/01/21 02:07:20;;;;;;;4.75;0.50;;;23.90;99.90;;;;;;5033131;28;20190;-78
2023/01/21 02:09:52;;;;;;;3.22;0.60;;;23.90;99.90;;;;;;5032915;28;20290;-77
2023/01/21 02:12:23;;;;;;;2.42;0.50;;;23.70;99.90;;;;;;5033056;28;20286;-77
2023/01/21 02:14:55;;;;;;;2.72;0.70;;;23.60;99.90;;;;;;5033001;28;20186;-77
2023/01/21 02:17:47;;;;;;;2.47;0.70;;;23.40;99.90;;;;;;5033112;28;20352;-77
2023/01/21 02:21:02;;;;;;;1.65;0.50;;;23.30;99.90;;;;;;5033096;28;20194;-78
2023/01/21 02:23:51;;;;;;;1.65;0.40;;;23.30;99.90;;;;;;5023863;28;20202;-77
2023/01/21 02:26:50;;;;;;;3.10;0.60;;;23.30;99.90;;;;;;5033064;28;20233;-77
2023/01/21 02:29:55;;;;;;;3.80;0.73;;;23.40;99.90;;;;;;5031773;28;20289;-77
2023/01/21 02:33:14;;;;;;;3.65;0.60;;;23.40;99.90;;;;;;5023672;28;20316;-78
2023/01/21 02:35:48;;;;;;;2.35;0.50;;;23.30;99.90;;;;;;5033206;28;20281;-78
2023/01/21 02:38:27;;;;;;;3.25;0.63;;;23.40;99.90;;;;;;5032735;28;20190;-77
2023/01/21 02:41:05;;;;;;;3.28;0.47;;;23.60;99.90;;;;;;5032990;28;20233;-77
2023/01/21 02:43:48;;;;;;;3.55;0.77;;;23.80;99.90;;;;;;5036140;28;20193;-77
2023/01/21 02:46:23;;;;;;;5.15;0.60;;;23.80;99.90;;;;;;5036736;28;20195;-78
2023/01/21 02:49:01;;;;;;;3.53;0.40;;;23.90;99.90;;;;;;5036675;28;20284;-79
2023/01/21 02:51:35;;;;;;;3.10;0.40;;;24.00;99.90;;;;;;5036407;28;20304;-78
2023/01/21 02:54:17;;;;;;;2.72;0.45;;;24.10;99.90;;;;;;5036446;28;20261;-78
2023/01/21 02:56:48;;;;;;;1.80;0.50;;;24.20;99.90;;;;;;5036307;28;20233;-78
2023/01/21 02:59:19;;;;;;;5.10;0.52;;;24.00;99.90;;;;;;5036392;28;20282;-77
2023/01/21 03:02:11;;;;;;;2.00;0.40;;;24.10;99.90;;;;;;5036345;28;20191;-77
2023/01/21 03:04:59;;;;;;;4.35;0.40;;;24.30;99.90;;;;;;5036292;28;20202;-77
2023/01/21 03:07:34;;;;;;;3.95;0.50;;;24.40;99.90;;;;;;5036097;28;20201;-78
2023/01/21 03:10:12;;;;;;;4.78;0.70;;;24.60;99.90;;;;;;5036193;28;20186;-78
2023/01/21 03:12:48;;;;;;;3.15;0.63;;;24.40;99.90;;;;;;5036087;28;20707;-77
2023/01/21 03:18:18;;;;;;;1.35;0.50;;;24.30;99.90;;;;;;5036175;28;20256;-77
2023/01/21 03:20:54;;;;;;;2.65;0.50;;;24.20;99.90;;;;;;5035808;28;20193;-77
2023/01/21 03:23:29;;;;;;;2.78;0.65;;;24.10;99.90;;;;;;5035953;28;20531;-77
2023/01/21 03:26:01;;;;;;;3.70;0.70;;;24.00;99.90;;;;;;5035911;28;20232;-77
2023/01/21 03:28:36;;;;;;;1.88;0.50;;;24.00;99.90;;;;;;5035940;28;20660;-77
2023/01/21 03:31:10;;;;;;;1.67;0.43;;;24.00;99.90;;;;;;5035894;28;20200;-77
2023/01/21 03:33:44;;;;;;;3.03;0.40;;;24.00;99.90;;;;;;5035762;28;20190;-76
2023/01/21 03:36:28;;;;;;;1.73;0.40;;;24.20;99.90;;;;;;5035548;28;20198;-76
2023/01/21 03:39:01;;;;;;;2.78;0.60;;;24.40;99.90;;;;;;5035664;28;20198;-76
2023/01/21 03:41:37;;;;;;;3.17;0.70;;;24.40;99.90;;;;;;5035618;28;20191;-77
2023/01/21 03:44:08;;;;;;;2.80;0.65;;;24.70;99.90;;;;;;5035452;28;20190;-78
2023/01/21 03:46:58;;;;;;;4.82;0.55;;;24.90;99.90;;;;;;5035587;28;20196;-77
2023/01/21 03:49:34;;;;;;;4.68;0.47;;;25.20;99.90;;;;;;5035276;28;20642;-77
2023/01/21 03:52:08;;;;;;;2.10;0.40;;;25.10;99.90;;;;;;5035301;28;20217;-76
2023/01/21 03:54:40;;;;;;;1.52;0.30;;;25.40;99.90;;;;;;5034523;28;20222;-77
2023/01/21 03:57:11;;;;;;;2.38;0.28;;;25.30;99.90;;;;;;5035403;28;20230;-74
2023/01/21 03:59:42;;;;;;;1.08;0.40;;;24.90;99.90;;;;;;5035341;28;20276;-76
2023/01/21 04:02:18;;;;;;;1.55;0.38;;;24.60;99.90;;;;;;5035230;28;20213;-76
2023/01/21 04:04:50;;;;;;;2.50;0.50;;;24.60;99.90;;;;;;5035029;28;20581;-74
2023/01/21 04:07:32;;;;;;;4.82;0.60;;;24.60;99.90;;;;;;5035188;28;20556;-76
2023/01/21 04:10:03;;;;;;;4.45;0.70;;;24.30;99.90;;;;;;5035120;28;20693;-77
2023/01/21 04:12:34;;;;;;;3.03;0.50;;;24.10;99.90;;;;;;5034920;28;20580;-77
2023/01/21 04:15:05;;;;;;;2.10;0.43;;;24.00;99.90;;;;;;5034999;28;20194;-77
2023/01/21 04:17:36;;;;;;;3.95;0.50;;;23.90;99.90;;;;;;5034995;28;20195;-77
2023/01/21 04:20:08;;;;;;;2.95;0.50;;;24.10;99.90;;;;;;5034792;28;20186;-76
2023/01/21 04:22:41;;;;;;;3.15;0.47;;;24.00;99.90;;;;;;5035226;28;20200;-75
2023/01/21 04:25:12;;;;;;;2.25;0.50;;;24.00;99.90;;;;;;5034842;28;20638;-76
2023/01/21 04:28:03;;;;;;;3.33;0.60;;;24.00;99.90;;;;;;5034849;28;20197;-77
2023/01/21 04:30:34;;;;;;;2.50;0.50;;;24.10;99.90;;;;;;5034847;28;20544;-76
2023/01/21 04:33:05;;;;;;;3.30;0.60;;;24.40;99.90;;;;;;5034360;28;20222;-77
2023/01/21 04:35:37;;;;;;;4.28;0.50;;;24.50;99.90;;;;;;5034635;28;20194;-75
2023/01/21 04:38:10;;;;;;;2.53;0.45;;;24.60;99.90;;;;;;5034649;28;20642;-76
2023/01/21 04:40:41;;;;;;;2.03;0.40;;;24.70;99.90;;;;;;5035034;28;20211;-76
2023/01/21 04:43:12;;;;;;;2.03;0.50;;;24.80;99.90;;;;;;5034408;28;20274;-78
2023/01/21 04:45:43;;;;;;;3.47;0.52;;;24.90;99.90;;;;;;5034445;28;20277;-78
2023/01/21 04:48:19;;;;;;;1.45;0.47;;;25.10;99.90;;;;;;5034138;28;20194;-78
2023/01/21 04:50:50;;;;;;;3.10;0.60;;;25.00;99.90;;;;;;5034428;28;20281;-76
2023/01/21 04:53:23;;;;;;;2.67;0.40;;;24.70;99.90;;;;;;5034119;28;20304;-77
2023/01/21 04:55:54;;;;;;;2.78;0.50;;;24.60;99.90;;;;;;5034188;28;20230;-77
2023/01/21 04:58:25;;;;;;;2.45;0.40;;;24.30;99.90;;;;;;5034146;28;20324;-77
2023/01/21 05:00:57;;;;;;;1.35;0.30;;;24.30;99.90;;;;;;5034194;28;20659;-77
2023/01/21 05:03:28;;;;;;;1.63;0.40;;;24.20;99.90;;;;;;5033889;28;20738;-76
2023/01/21 05:05:59;;;;;;;4.90;0.45;;;24.20;99.90;;;;;;5034163;28;20699;-76
2023/01/21 05:08:38;;;;;;;5.82;0.50;;;23.80;99.90;;;;;;5034377;28;20205;-75
2023/01/21 05:11:18;;;;;;;1.10;0.32;;;23.60;99.90;;;;;;5033988;28;20281;-76
2023/01/21 05:13:49;;;;;;;2.67;0.60;;;23.50;99.90;;;;;;5033762;28;20301;-77
2023/01/21 05:16:20;;;;;;;2.85;0.40;;;23.40;99.90;;;;;;5033888;28;20201;-76
2023/01/21 05:18:52;;;;;;;3.47;0.50;;;23.40;99.90;;;;;;5034007;28;20198;-73
2023/01/21 05:21:24;;;;;;;4.55;0.70;;;23.50;99.90;;;;;;5033922;28;20194;-77
2023/01/21 05:23:57;;;;;;;4.50;0.63;;;23.70;99.90;;;;;;5033761;28;20190;-75
2023/01/21 05:26:28;;;;;;;3.25;0.57;;;23.90;99.90;;;;;;5033790;28;20201;-76
2023/01/21 05:28:59;;;;;;;3.30;0.40;;;24.10;99.90;;;;;;5033732;28;20194;-76
2023/01/21 05:31:35;;;;;;;1.83;0.40;;;24.00;99.90;;;;;;5033819;28;20668;-75
2023/01/21 05:34:06;;;;;;;3.53;0.60;;;24.00;99.90;;;;;;5033638;28;20193;-77
2023/01/21 05:36:40;;;;;;;3.05;0.50;;;23.80;99.90;;;;;;5033894;28;20203;-77
2023/01/21 05:39:13;;;;;;;3.55;0.63;;;23.60;99.90;;;;;;5033494;28;20190;-77
2023/01/21 05:41:43;;;;;;;6.05;0.75;;;23.40;99.90;;;;;;5033403;28;20745;-76
2023/01/21 05:44:14;;;;;;;3.03;0.65;;;23.30;99.90;;;;;;5033573;28;20497;-76
2023/01/21 05:46:46;;;;;;;4.10;0.90;;;23.20;99.90;;;;;;5033296;28;20197;-76
2023/01/21 05:49:16;;;;;;;4.20;0.68;;;23.30;99.90;;;;;;5033485;28;20213;-76
2023/01/21 05:51:53;;;;;;;3.80;0.70;;;23.30;99.90;;;;;;5033358;28;20203;-78
2023/01/21 05:54:26;;;;;;;5.30;0.88;;;23.30;99.90;;;;;;5033315;28;20222;-76
2023/01/21 05:56:58;;;;;;;4.50;0.77;;;23.30;99.90;;;;;;5033224;28;20234;-76
2023/01/21 05:59:29;;;;;;;4.93;0.90;;;23.30;99.90;;;;;;5033347;28;20225;-75
2023/01/21 06:02:00;;;;;;;5.65;0.77;;;23.20;99.90;;;;;;5032991;28;20281;-74
2023/01/21 06:04:31;;;;;;;1.40;0.55;;;23.10;99.90;;;;;;5033256;28;20197;-76
2023/01/21 06:07:02;;;;;;;5.70;0.70;;;22.90;99.90;;;;;;5033309;28;20256;-76
2023/01/21 06:09:35;;;;;;;4.47;0.70;;;22.80;99.90;;;;;;5033266;28;20191;-77
2023/01/21 06:12:18;;;;;;;6.18;0.80;;;22.60;99.90;;;;;;5033375;28;20190;-76
2023/01/21 06:14:49;;;;;;;4.75;0.70;;;22.60;99.90;;;;;;5032957;28;20670;-76
2023/01/21 06:17:20;;;;;;;5.35;0.90;;;22.60;99.90;;;;;;5034567;28;20190;-75
2023/01/21 06:19:51;;;;;;;2.75;0.50;;;22.70;99.90;;;;;;5037183;28;20550;-77
2023/01/21 06:22:22;;;;;;;6.53;0.90;;;22.80;99.90;;;;;;5037079;28;20281;-76
2023/01/21 06:24:55;;;;;;;4.55;0.82;;;22.70;99.90;;;;;;5037347;28;20729;-75
2023/01/21 06:27:25;;;;;;;3.13;0.65;;;22.60;99.90;;;;;;5037379;28;20572;-75
2023/01/21 06:29:57;;;;;;;6.20;1.08;;;22.50;99.90;;;;;;5036807;28;20201;-75
2023/01/21 06:32:37;;;;;;;3.60;0.80;;;22.40;99.90;;;;;;5037199;28;20209;-76
2023/01/21 06:35:09;;;;;;;3.92;0.60;;;22.40;99.90;;;;;;5036922;28;20245;-75
2023/01/21 06:37:39;;;;;;;5.32;1.00;;;22.30;99.90;;;;;;5036924;28;20220;-76
2023/01/21 06:40:14;;;;;;;2.55;0.45;;;22.40;99.90;;;;;;5036853;28;20733;-75
2023/01/21 06:42:47;;;;;;;3.20;0.80;;;22.30;99.90;;;;;;5036818;28;20193;-75
2023/01/21 06:45:18;;;;;;;3.10;0.75;;;22.20;99.90;;;;;;5036567;28;20187;-74
2023/01/21 06:47:49;;;;;;;3.58;0.70;;;22.10;99.90;;;;;;5036729;28;20226;-76
2023/01/21 06:50:21;;;;;;;4.45;1.20;;;22.00;99.90;;;;;;5036707;28;20278;-75
2023/01/21 06:53:01;;;;;;;3.55;0.63;;;22.00;99.90;;;;;;5036527;28;20284;-76
2023/01/21 06:55:34;;;;;;;4.07;0.60;;;21.80;99.90;;;;;;5036430;28;20228;-75
2023/01/21 06:58:05;;;;;;;5.13;0.60;;;21.70;99.90;;;;;;5036181;28;20226;-74
2023/01/21 07:00:36;;;;;;;2.83;0.50;;;21.50;99.90;;;;;;5036608;28;20190;-75
2023/01/21 07:03:07;;;;;;;3.08;0.90;;;21.20;99.90;;;;;;5036429;28;20212;-76
2023/01/21 07:05:38;;;;;;;4.25;0.93;;;21.20;99.90;;;;;;5036441;28;20208;-74
2023/01/21 07:08:09;;;;;;;4.20;0.73;;;21.20;99.90;;;;;;5036920;28;20197;-76
2023/01/21 07:10:42;;;;;;;4.45;1.00;;;21.10;99.90;;;;;;5036340;28;20625;-77
2023/01/21 07:13:22;;;;;;;3.80;1.05;;;21.00;99.90;;;;;;5036195;28;20222;-77
2023/01/21 07:15:53;;;;;;;3.22;0.88;;;20.90;99.90;;;;;;5036468;28;20195;-78
2023/01/21 07:18:24;;;;;;;4.20;0.80;;;20.90;99.90;;;;;;5036164;28;20273;-76
2023/01/21 07:20:54;;;;;;;3.70;0.70;;;20.90;99.90;;;;;;5036172;28;20734;-75
2023/01/21 07:23:25;;;;;;;2.63;0.55;;;21.00;99.90;;;;;;5035982;28;20190;-76
2023/01/21 07:25:59;;;;;;;1.77;0.75;;;20.90;99.90;;;;;;5036026;28;20633;-76
2023/01/21 07:28:30;;;;;;;5.07;1.60;;;20.80;99.90;;;;;;5034637;28;20657;-75
2023/01/21 07:31:02;;;;;;;5.90;1.02;;;20.80;99.90;;;;;;5035963;28;20566;-75
2023/01/21 07:33:38;;;;;;;3.78;1.08;;;20.80;99.90;;;;;;5035806;28;20218;-77
2023/01/21 07:36:10;;;;;;;3.35;1.13;;;20.80;99.90;;;;;;5035801;28;20192;-75
2023/01/21 07:38:41;;;;;;;3.65;1.05;;;20.80;99.90;;;;;;5035806;28;20197;-76
2023/01/21 07:41:14;;;;;;;4.65;0.90;;;20.80;99.90;;;;;;5036161;28;20557;-77
2023/01/21 07:43:45;;;;;;;4.43;1.08;;;20.80;99.90;;;;;;5035813;28;20190;-77
2023/01/21 07:46:17;;;;;;;3.83;1.00;;;20.80;99.90;;;;;;5035719;28;20199;-76
2023/01/21 07:48:50;;;;;;;4.05;1.00;;;20.80;99.90;;;;;;5035633;28;20202;-77
2023/01/21 07:51:21;;;;;;;1.98;0.70;;;20.90;99.90;;;;;;5035559;28;20547;-75
2023/01/21 07:54:00;;;;;;;2.42;0.52;;;20.80;99.90;;;;;;5035301;28;20313;-75
2023/01/21 07:56:33;;;;;;;2.42;0.80;;;20.90;99.90;;;;;;5034849;28;20288;-76
2023/01/21 07:59:05;;;;;;;4.53;0.70;;;20.90;99.90;;;;;;5035426;28;20190;-76
2023/01/21 08:01:35;;;;;;;5.07;0.70;;;21.00;99.90;;;;;;5035312;28;20200;-78
2023/01/21 08:04:08;;;;;;;4.97;0.90;;;21.00;99.90;;;;;;5035355;28;20297;-76
2023/01/21 08:06:40;;;;;;;6.25;1.13;;;21.00;99.90;;;;;;5035267;28;20190;-78
2023/01/21 08:09:11;;;;;;;3.88;0.90;;;21.10;99.90;;;;;;5035251;28;20591;-76
2023/01/21 08:11:46;;;;;;;3.67;0.70;;;21.10;99.90;;;;;;5034960;28;20186;-76
2023/01/21 08:14:22;;;;;;;2.92;0.80;;;21.10;99.90;;;;;;5035008;28;20236;-78
2023/01/21 08:16:53;;;;;;;3.35;0.80;;;21.10;99.90;;;;;;5035133;28;20277;-78
2023/01/21 08:19:24;;;;;;;5.00;0.80;;;21.10;99.90;;;;;;5035056;28;20194;-77
2023/01/21 08:21:55;;;;;;;4.18;0.90;;;21.10;99.90;;;;;;5034923;28;20205;-76
2023/01/21 08:24:26;;;;;;;3.92;1.10;;;21.10;99.90;;;;;;5034924;28;20194;-77
2023/01/21 08:27:00;;;;;;;6.82;1.20;;;21.10;99.90;;;;;;5034695;28;20196;-76
2023/01/21 08:29:31;;;;;;;4.00;1.13;;;21.10;99.90;;;;;;5034775;28;20201;-76
2023/01/21 08:32:03;;;;;;;5.22;1.10;;;21.10;99.90;;;;;;5034714;28;20265;-79
2023/01/21 08:34:34;;;;;;;4.10;1.20;;;21.10;99.90;;;;;;5034977;28;20310;-76
2023/01/21 08:37:11;;;;;;;6.32;1.20;;;21.20;99.90;;;;;;5034931;28;20194;-76
2023/01/21 08:39:41;;;;;;;4.00;1.15;;;21.20;99.90;;;;;;5034127;28;20194;-76
2023/01/21 08:42:14;;;;;;;3.72;1.10;;;21.20;99.90;;;;;;5034480;28;20283;-76
2023/01/21 08:44:45;;;;;;;4.10;1.00;;;21.20;99.90;;;;;;5034505;28;20194;-76
2023/01/21 08:47:16;;;;;;;5.18;0.90;;;21.20;99.90;;;;;;5034498;28;20198;-76
2023/01/21 08:49:47;;;;;;;4.57;1.00;;;21.20;99.90;;;;;;5034449;28;20273;-76
2023/01/21 08:52:19;;;;;;;7.32;0.90;;;21.20;99.90;;;;;;5034337;28;20201;-76
2023/01/21 08:54:50;;;;;;;5.60;0.85;;;21.30;99.90;;;;;;5034079;28;20230;-76
2023/01/21 08:57:29;;;;;;;4.40;0.90;;;21.20;99.90;;;;;;5034115;28;20234;-76
2023/01/21 09:00:00;;;;;;;3.83;0.90;;;21.30;99.90;;;;;;5034278;28;20190;-76
2023/01/21 09:02:30;;;;;;;3.78;0.80;;;21.20;99.90;;;;;;5034174;28;20281;-75
2023/01/21 09:05:02;;;;;;;4.32;0.98;;;21.20;99.90;;;;;;5034106;28;20296;-76
2023/01/21 09:07:33;;;;;;;3.55;0.80;;;21.20;99.90;;;;;;5034078;28;20197;-77
2023/01/21 09:10:04;;;;;;;4.43;0.98;;;21.20;99.90;;;;;;5033891;28;20201;-78
2023/01/21 09:12:37;;;;;;;5.22;0.95;;;21.20;99.90;;;;;;5033941;28;20197;-76
2023/01/21 09:15:08;;;;;;;5.07;1.00;;;21.20;99.90;;;;;;5033840;28;20224;-75
2023/01/21 09:17:42;;;;;;;3.60;0.73;;;21.10;99.90;;;;;;5033969;28;20197;-77
2023/01/21 09:20:14;;;;;;;5.80;0.90;;;21.20;99.90;;;;;;5033887;28;20186;-77
2023/01/21 09:22:45;;;;;;;3.10;1.00;;;21.10;99.90;;;;;;5033801;28;20277;-76
2023/01/21 09:25:16;;;;;;;4.53;1.00;;;21.10;99.90;;;;;;5033650;28;20646;-77
2023/01/21 09:27:49;;;;;;;4.07;0.90;;;21.10;99.90;;;;;;5033832;28;20657;-77
2023/01/21 09:30:20;;;;;;;3.78;0.60;;;21.10;99.90;;;;;;5033801;28;20637;-74
2023/01/21 09:32:51;;;;;;;5.10;0.82;;;21.00;99.90;;;;;;5033660;28;20197;-75
2023/01/21 09:35:22;;;;;;;3.85;0.90;;;21.00;99.90;;;;;;5033725;28;20687;-76
2023/01/21 09:37:58;;;;;;;4.95;0.80;;;20.90;99.90;;;;;;5033418;28;20201;-76
2023/01/21 09:40:29;;;;;;;3.70;0.60;;;20.80;99.90;;;;;;5033669;28;20190;-76
2023/01/21 09:43:12;;;;;;;6.95;1.00;;;20.70;99.90;;;;;;5033522;28;20190;-76
2023/01/21 09:45:45;;;;;;;5.07;0.90;;;20.80;99.90;;;;;;5033508;28;20198;-76
2023/01/21 09:48:38;;;;;;;2.58;0.80;;;20.70;99.90;;;;;;5033484;28;20190;-76
2023/01/21 09:51:17;;;;;;;6.82;0.88;;;20.70;99.90;;;;;;5033097;28;20206;-76
2023/01/21 09:53:54;;;;;;;2.03;0.50;;;20.70;99.90;;;;;;5032866;28;20237;-76
2023/01/21 09:56:30;;;;;;;3.75;0.80;;;20.60;99.90;;;;;;5033255;28;20684;-76
2023/01/21 09:59:09;;;;;;;3.67;0.60;;;20.60;99.90;;;;;;5033403;28;20217;-77
2023/01/21 10:01:43;;;;;;;3.35;0.68;;;20.60;99.90;;;;;;5033517;28;20186;-76
2023/01/21 10:04:33;;;;;;;2.17;0.57;;;20.60;99.90;;;;;;5033269;28;20551;-76
2023/01/21 10:07:08;;;;;;;2.58;0.50;;;20.50;99.90;;;;;;5033409;28;20273;-76
2023/01/21 10:09:55;;;;;;;4.00;0.95;;;20.50;99.90;;;;;;5033318;28;20634;-76
2023/01/21 10:12:52;;;;;;;3.35;0.50;;;20.60;99.90;;;;;;5033242;28;20190;-76
2023/01/21 10:15:45;;;;;;;3.15;0.50;;;20.60;99.90;;;;;;5033152;28;20230;-75
2023/01/21 10:18:20;;;;;;;2.22;0.45;;;20.50;99.90;;;;;;5033163;28;20206;-76
2023/01/21 10:20:59;;;;;;;5.05;0.63;;;20.50;99.90;;;;;;5033211;28;20193;-75
2023/01/21 10:23:37;;;;;;;1.02;0.47;;;20.50;99.90;;;;;;5033096;28;20197;-77
2023/01/21 10:26:11;;;;;;;3.38;0.60;;;20.50;99.90;;;;;;5033068;28;20186;-75
2023/01/21 10:28:46;;;;;;;2.70;0.50;;;20.50;99.90;;;;;;5033144;28;20672;-76
2023/01/21 10:31:24;;;;;;;4.45;0.70;;;20.50;99.90;;;;;;5032998;28;20190;-76
2023/01/21 10:33:56;;;;;;;3.10;0.60;;;20.50;99.90;;;;;;5032972;28;20217;-75
2023/01/21 10:36:55;;;;;;;3.67;0.50;;;20.50;99.90;;;;;;5032849;28;20194;-76
2023/01/21 10:39:39;;;;;;;3.60;0.57;;;20.50;99.90;;;;;;5033015;28;20191;-76
2023/01/21 10:42:41;;;;;;;2.90;0.63;;;20.40;99.90;;;;;;5032970;28;20187;-76
2023/01/21 10:45:22;;;;;;;3.85;0.50;;;20.40;99.90;;;;;;5028469;28;20683;-76
2023/01/21 10:48:02;;;;;;;5.05;0.70;;;20.40;99.90;;;;;;5033152;28;20551;-77
2023/01/21 10:50:41;;;;;;;4.05;0.52;;;20.40;99.90;;;;;;5032675;28;20280;-75
2023/01/21 10:53:21;;;;;;;1.65;0.50;;;20.40;99.90;;;;;;5032823;28;20201;-75
2023/01/21 10:56:13;;;;;;;2.28;0.50;;;20.40;99.90;;;;;;5032899;28;20288;-76
2023/01/21 10:58:49;;;;;;;3.58;0.70;;;20.40;99.90;;;;;;5032723;28;20234;-76
2023/01/21 11:01:25;;;;;;;2.00;0.40;;;20.50;99.90;;;;;;5032829;28;20190;-76
2023/01/21 11:03:59;;;;;;;3.30;0.70;;;20.50;99.90;;;;;;5034928;28;20656;-76
2023/01/21 11:06:33;;;;;;;2.05;0.50;;;20.50;99.90;;;;;;5036236;28;20292;-76
2023/01/21 11:09:06;;;;;;;2.78;0.50;;;20.50;99.90;;;;;;5036378;28;20190;-76
2023/01/21 11:11:39;;;;;;;1.63;0.40;;;20.50;99.90;;;;;;5036353;28;20197;-76
2023/01/21 11:14:11;;;;;;;3.97;0.60;;;20.50;99.90;;;;;;5036261;28;20296;-76
2023/01/21 11:16:46;;;;;;;2.47;0.38;;;20.50;99.90;;;;;;5036235;28;20190;-76
2023/01/21 11:19:23;;;;;;;2.30;0.40;;;20.50;99.90;;;;;;5036005;28;20269;-76
2023/01/21 11:22:03;;;;;;;2.03;0.50;;;20.50;99.90;;;;;;5036093;28;20194;-75
2023/01/21 11:24:46;;;;;;;0.93;0.40;;;20.50;99.90;;;;;;5036092;28;20198;-76
2023/01/21 11:27:34;;;;;;;3.63;0.40;;;20.50;99.90;;;;;;5036116;28;20191;-76
2023/01/21 11:30:06;;;;;;;2.47;0.43;;;20.50;99.90;;;;;;5035978;28;20199;-75
2023/01/21 11:32:37;;;;;;;3.35;0.50;;;20.50;99.90;;;;;;5035938;28;20200;-76
2023/01/21 11:35:12;;;;;;;1.63;0.47;;;20.50;99.90;;;;;;5036050;28;20222;-76
2023/01/21 11:37:48;;;;;;;1.25;0.45;;;20.50;99.90;;;;;;5035955;28;20292;-75
2023/01/21 11:40:23;;;;;;;2.92;0.50;;;20.50;99.90;;;;;;5035846;28;20189;-76
2023/01/21 11:42:56;;;;;;;1.38;0.50;;;20.50;99.90;;;;;;5035696;28;20194;-75
2023/01/21 11:45:31;;;;;;;4.97;0.70;;;20.50;99.90;;;;;;5035761;28;20285;-76
2023/01/21 11:48:16;;;;;;;1.98;0.52;;;20.50;99.90;;;;;;5035470;28;20190;-77
2023/01/21 11:50:49;;;;;;;2.72;0.57;;;20.50;99.90;;;;;;5035034;28;20293;-76
2023/01/21 11:53:21;;;;;;;2.67;0.60;;;20.50;99.90;;;;;;5035516;28;20190;-76
2023/01/21 11:55:55;;;;;;;3.25;0.60;;;20.50;99.90;;;;;;5035481;28;20222;-75
2023/01/21 11:58:30;;;;;;;4.00;0.77;;;20.50;99.90;;;;;;5035297;28;20248;-76
2023/01/21 12:01:02;;;;;;;3.95;0.80;;;20.50;99.90;;;;;;5035383;28;20281;-76
2023/01/21 12:03:36;;;;;;;6.32;1.02;;;20.60;99.90;;;;;;5035112;28;20193;-77
2023/01/21 12:06:11;;;;;;;4.60;0.75;;;20.60;99.90;;;;;;5035327;28;20709;-76
2023/01/21 12:08:44;;;;;;;2.85;0.70;;;20.50;99.90;;;;;;5035614;28;20291;-76
2023/01/21 12:11:23;;;;;;;3.45;0.60;;;20.60;99.90;;;;;;5035128;28;20217;-76
2023/01/21 12:14:01;;;;;;;3.13;0.70;;;20.50;99.90;;;;;;5035089;28;20186;-77
2023/01/21 12:16:35;;;;;;;2.70;0.50;;;20.50;99.90;;;;;;5034567;28;20197;-76
2023/01/21 12:19:27;;;;;;;3.85;0.75;;;20.60;99.90;;;;;;5034890;28;20541;-76
2023/01/21 12:22:25;;;;;;;3.85;0.60;;;20.60;99.90;;;;;;5025500;28;20202;-76
2023/01/21 12:25:24;;;;;;;1.52;0.52;;;20.60;99.90;;;;;;5034950;28;20195;-76
2023/01/21 12:28:07;;;;;;;5.32;0.80;;;20.60;99.90;;;;;;5033214;28;20206;-76
2023/01/21 12:30:45;;;;;;;3.08;0.60;;;20.60;99.90;;;;;;5034866;28;20191;-75
2023/01/21 12:33:20;;;;;;;2.05;0.50;;;20.60;99.90;;;;;;5034867;28;20197;-75
2023/01/21 12:35:55;;;;;;;5.22;0.60;;;20.50;99.90;;;;;;5034966;28;20586;-75
2023/01/21 12:38:31;;;;;;;3.08;0.65;;;20.50;99.90;;;;;;5034671;28;20668;-76
2023/01/21 12:41:06;;;;;;;3.63;0.45;;;20.50;99.90;;;;;;5034534;28;20586;-76
2023/01/21 12:43:41;;;;;;;2.92;0.70;;;20.50;99.90;;;;;;5034630;28;20190;-76
2023/01/21 12:46:18;;;;;;;3.10;0.60;;;20.40;99.90;;;;;;5034651;28;20197;-76
2023/01/21 12:48:53;;;;;;;1.25;0.47;;;20.40;99.90;;;;;;5034611;28;20202;-76
2023/01/21 12:51:31;;;;;;;2.33;0.50;;;20.40;99.90;;;;;;5034446;28;20200;-76
2023/01/21 12:54:18;;;;;;;2.90;0.60;;;20.30;99.90;;;;;;5034250;28;20737;-76
2023/01/21 12:56:55;;;;;;;3.58;0.52;;;20.30;99.90;;;;;;5034149;28;20608;-76
2023/01/21 12:59:32;;;;;;;4.35;0.57;;;20.30;99.90;;;;;;5034347;28;20277;-76
2023/01/21 13:02:07;;;;;;;4.85;0.70;;;20.40;99.90;;;;;;5033993;28;20200;-77
2023/01/21 13:04:48;;;;;;;5.03;0.60;;;20.30;99.90;;;;;;5034216;28;20186;-76
2023/01/21 13:07:27;;;;;;;3.63;0.68;;;20.30;99.90;;;;;;5034239;28;20565;-76
2023/01/21 13:10:06;;;;;;;1.45;0.65;;;20.30;99.90;;;;;;5034179;28;20212;-76
2023/01/21 13:12:51;;;;;;;4.32;0.90;;;20.30;99.90;;;;;;5034016;28;20190;-76
2023/01/21 13:15:25;;;;;;;3.38;0.60;;;20.30;99.90;;;;;;5033726;28;20226;-76
2023/01/21 13:18:00;;;;;;;2.33;0.65;;;20.30;99.90;;;;;;5033924;28;20187;-77
2023/01/21 13:20:35;;;;;;;5.10;0.80;;;20.30;99.90;;;;;;5033988;28;20277;-75
2023/01/21 13:23:17;;;;;;;4.15;0.60;;;20.30;99.90;;;;;;5033888;28;20189;-76
2023/01/21 13:25:58;;;;;;;4.18;0.60;;;20.30;99.90;;;;;;5033952;28;20281;-76
2023/01/21 13:28:37;;;;;;;5.28;0.70;;;20.30;99.90;;;;;;5033366;28;20197;-75
2023/01/21 13:31:14;;;;;;;3.33;0.57;;;20.30;99.90;;;;;;5033551;28;20277;-76